Time,TemperatureF,DewpointF,PressureIn,WindDirection,WindDirectionDegrees,WindSpeedMPH,WindSpeedGustMPH,Humidity,HourlyPrecipIn,Conditions,Clouds,dailyrainin,SolarRadiationWatts/m^2,SoftwareType,DateUTC
2013-06-28 00:02:00,64.0,39.0,-100.00,South,169,8.0,19.0,39,0.00,,,0.00,0.000000,,2013-06-28 06:02:00,
2013-06-28 00:12:00,64.0,39.0,-100.00,South,169,8.0,19.0,39,0.00,,,0.00,0.000000,,2013-06-28 06:12:00,
2013-06-28 00:22:00,64.0,39.0,-100.00,South,169,8.0,19.0,39,0.00,,,0.00,0.000000,,2013-06-28 06:22:00,
2013-06-28 00:33:00,64.0,39.0,-100.00,South,169,8.0,19.0,39,0.00,,,0.00,0.000000,,2013-06-28 06:33:00,
2013-06-28 01:01:00,63.0,38.0,-100.00,SSW,209,6.0,15.0,40,0.00,,,0.00,0.000000,,2013-06-28 07:01:00,
2013-06-28 01:11:00,63.0,38.0,-100.00,SSW,209,6.0,15.0,40,0.00,,,0.00,0.000000,,2013-06-28 07:11:00,
2013-06-28 01:22:00,63.0,38.0,-100.00,SSW,209,6.0,15.0,40,0.00,,,0.00,0.000000,,2013-06-28 07:22:00,
2013-06-28 01:33:00,63.0,38.0,-100.00,SSW,209,6.0,15.0,40,0.00,,,0.00,0.000000,,2013-06-28 07:33:00,
2013-06-28 02:01:00,62.0,40.0,-100.00,SSE,163,5.0,14.0,44,0.00,,,0.00,0.000000,,2013-06-28 08:01:00,
2013-06-28 02:11:00,62.0,40.0,-100.00,SSE,163,5.0,14.0,44,0.00,,,0.00,0.000000,,2013-06-28 08:11:00,
2013-06-28 02:21:00,62.0,40.0,-100.00,SSE,163,5.0,14.0,44,0.00,,,0.00,0.000000,,2013-06-28 08:21:00,
2013-06-28 02:33:00,62.0,40.0,-100.00,SSE,163,5.0,14.0,44,0.00,,,0.00,0.000000,,2013-06-28 08:33:00,
2013-06-28 03:02:00,60.0,42.0,-100.00,SE,141,9.0,16.0,51,0.00,,,0.00,0.000000,,2013-06-28 09:02:00,
2013-06-28 03:11:00,60.0,42.0,-100.00,SE,141,9.0,16.0,51,0.00,,,0.00,0.000000,,2013-06-28 09:11:00,
2013-06-28 03:22:00,60.0,42.0,-100.00,SE,141,9.0,16.0,51,0.00,,,0.00,0.000000,,2013-06-28 09:22:00,
2013-06-28 03:33:00,60.0,42.0,-100.00,SE,141,9.0,16.0,51,0.00,,,0.00,0.000000,,2013-06-28 09:33:00,
2013-06-28 04:02:00,58.0,42.0,-100.00,NNW,340,3.0,15.0,56,0.00,,,0.00,0.000000,,2013-06-28 10:02:00,
2013-06-28 04:11:00,58.0,42.0,-100.00,NNW,340,3.0,15.0,56,0.00,,,0.00,0.000000,,2013-06-28 10:11:00,
2013-06-28 04:22:00,58.0,42.0,-100.00,NNW,340,3.0,15.0,56,0.00,,,0.00,0.000000,,2013-06-28 10:22:00,
2013-06-28 04:33:00,58.0,42.0,-100.00,NNW,340,3.0,15.0,56,0.00,,,0.00,0.000000,,2013-06-28 10:33:00,
2013-06-28 04:34:00,57.0,42.0,-100.00,South,181,5.0,10.0,58,0.00,,,0.00,0.000000,,2013-06-28 10:34:00,
2013-06-28 05:02:00,57.0,42.0,-100.00,South,181,5.0,10.0,58,0.00,,,0.00,0.000000,,2013-06-28 11:02:00,
2013-06-28 05:11:00,57.0,42.0,-100.00,South,181,5.0,10.0,58,0.00,,,0.00,0.000000,,2013-06-28 11:11:00,
2013-06-28 05:22:00,57.0,42.0,-100.00,South,181,5.0,10.0,58,0.00,,,0.00,0.000000,,2013-06-28 11:22:00,
2013-06-28 06:02:00,56.0,42.0,-100.00,SW,226,4.0,7.0,59,0.00,,,0.00,1.000000,,2013-06-28 12:02:00,
2013-06-28 06:12:00,56.0,42.0,-100.00,SW,226,4.0,7.0,59,0.00,,,0.00,1.000000,,2013-06-28 12:12:00,
2013-06-28 06:22:00,56.0,42.0,-100.00,SW,226,4.0,7.0,59,0.00,,,0.00,1.000000,,2013-06-28 12:22:00,
2013-06-28 06:33:00,56.0,42.0,-100.00,SW,226,4.0,7.0,59,0.00,,,0.00,1.000000,,2013-06-28 12:33:00,
2013-06-28 06:52:00,57.0,43.0,-100.00,WSW,247,4.0,9.0,60,0.00,,,0.00,18.000000,,2013-06-28 12:52:00,
2013-06-28 07:01:00,57.0,43.0,-100.00,WSW,247,4.0,9.0,60,0.00,,,0.00,18.000000,,2013-06-28 13:01:00,
2013-06-28 07:11:00,57.0,43.0,-100.00,WSW,247,4.0,9.0,60,0.00,,,0.00,18.000000,,2013-06-28 13:11:00,
2013-06-28 07:23:00,57.0,43.0,-100.00,WSW,247,4.0,9.0,60,0.00,,,0.00,18.000000,,2013-06-28 13:23:00,
2013-06-28 07:33:00,57.0,43.0,-100.00,WSW,247,4.0,9.0,60,0.00,,,0.00,18.000000,,2013-06-28 13:33:00,
2013-06-28 08:02:00,59.0,42.0,-100.00,NW,323,4.0,7.0,54,0.00,,,0.00,178.000000,,2013-06-28 14:02:00,
2013-06-28 08:12:00,59.0,42.0,-100.00,NW,323,4.0,7.0,54,0.00,,,0.00,178.000000,,2013-06-28 14:12:00,
2013-06-28 08:22:00,59.0,42.0,-100.00,NW,323,4.0,7.0,54,0.00,,,0.00,178.000000,,2013-06-28 14:22:00,
2013-06-28 08:33:00,59.0,42.0,-100.00,NW,323,4.0,7.0,54,0.00,,,0.00,178.000000,,2013-06-28 14:33:00,
2013-06-28 08:34:00,63.0,42.0,-100.00,NW,312,4.0,8.0,46,0.00,,,0.00,368.000000,,2013-06-28 14:34:00,
2013-06-28 09:02:00,63.0,42.0,-100.00,NW,312,4.0,8.0,46,0.00,,,0.00,368.000000,,2013-06-28 15:02:00,
2013-06-28 09:11:00,63.0,42.0,-100.00,NW,312,4.0,8.0,46,0.00,,,0.00,368.000000,,2013-06-28 15:11:00,
2013-06-28 09:24:00,63.0,42.0,-100.00,NW,312,4.0,8.0,46,0.00,,,0.00,368.000000,,2013-06-28 15:24:00,
2013-06-28 10:01:00,68.0,41.0,-100.00,West,277,4.0,7.0,38,0.00,,,0.00,581.000000,,2013-06-28 16:01:00,
2013-06-28 10:11:00,68.0,41.0,-100.00,West,277,4.0,7.0,38,0.00,,,0.00,581.000000,,2013-06-28 16:11:00,
2013-06-28 10:24:00,68.0,41.0,-100.00,West,277,4.0,7.0,38,0.00,,,0.00,581.000000,,2013-06-28 16:24:00,
2013-06-28 10:33:00,68.0,41.0,-100.00,West,277,4.0,7.0,38,0.00,,,0.00,581.000000,,2013-06-28 16:33:00,
2013-06-28 11:02:00,74.0,41.0,-100.00,North,349,4.0,8.0,31,0.00,,,0.00,776.000000,,2013-06-28 17:02:00,
2013-06-28 11:11:00,74.0,41.0,-100.00,North,349,4.0,8.0,31,0.00,,,0.00,776.000000,,2013-06-28 17:11:00,
2013-06-28 11:22:00,74.0,41.0,-100.00,North,349,4.0,8.0,31,0.00,,,0.00,776.000000,,2013-06-28 17:22:00,
2013-06-28 11:33:00,74.0,41.0,-100.00,North,349,4.0,8.0,31,0.00,,,0.00,776.000000,,2013-06-28 17:33:00,
2013-06-28 11:52:00,79.0,39.0,-100.00,NNW,329,6.0,10.0,24,0.00,,,0.00,815.000000,,2013-06-28 17:52:00,
2013-06-28 12:02:00,79.0,39.0,-100.00,NNW,329,6.0,10.0,24,0.00,,,0.00,815.000000,,2013-06-28 18:02:00,
2013-06-28 12:11:00,79.0,39.0,-100.00,NNW,329,6.0,10.0,24,0.00,,,0.00,815.000000,,2013-06-28 18:11:00,
2013-06-28 12:22:00,79.0,39.0,-100.00,NNW,329,6.0,10.0,24,0.00,,,0.00,815.000000,,2013-06-28 18:22:00,
2013-06-28 12:33:00,79.0,39.0,-100.00,NNW,329,6.0,10.0,24,0.00,,,0.00,815.000000,,2013-06-28 18:33:00,
2013-06-28 12:52:00,79.0,29.0,-100.00,NNW,339,7.0,12.0,16,0.00,,,0.00,823.000000,,2013-06-28 18:52:00,
2013-06-28 13:01:00,79.0,29.0,-100.00,NNW,339,7.0,12.0,16,0.00,,,0.00,823.000000,,2013-06-28 19:01:00,
2013-06-28 13:11:00,79.0,29.0,-100.00,NNW,339,7.0,12.0,16,0.00,,,0.00,823.000000,,2013-06-28 19:11:00,
2013-06-28 13:22:00,79.0,29.0,-100.00,NNW,339,7.0,12.0,16,0.00,,,0.00,823.000000,,2013-06-28 19:22:00,
2013-06-28 13:33:00,79.0,29.0,-100.00,NNW,339,7.0,12.0,16,0.00,,,0.00,823.000000,,2013-06-28 19:33:00,
2013-06-28 13:53:00,78.0,32.0,-100.00,West,279,8.0,14.0,19,0.00,,,0.00,637.000000,,2013-06-28 19:53:00,
2013-06-28 14:02:00,78.0,32.0,-100.00,West,279,8.0,14.0,19,0.00,,,0.00,637.000000,,2013-06-28 20:02:00,
2013-06-28 14:11:00,78.0,32.0,-100.00,West,279,8.0,14.0,19,0.00,,,0.00,637.000000,,2013-06-28 20:11:00,
2013-06-28 14:22:00,78.0,32.0,-100.00,West,279,8.0,14.0,19,0.00,,,0.00,637.000000,,2013-06-28 20:22:00,
2013-06-28 14:33:00,78.0,32.0,-100.00,West,279,8.0,14.0,19,0.00,,,0.00,637.000000,,2013-06-28 20:33:00,
2013-06-28 14:34:00,80.0,31.0,-100.00,SSW,197,5.0,20.0,17,0.00,,,0.00,765.000000,,2013-06-28 20:34:00,
2013-06-28 14:52:00,80.0,31.0,-100.00,SSW,197,5.0,20.0,17,0.00,,,0.00,765.000000,,2013-06-28 20:52:00,
2013-06-28 15:02:00,80.0,31.0,-100.00,SSW,197,5.0,20.0,17,0.00,,,0.00,765.000000,,2013-06-28 21:02:00,
2013-06-28 15:11:00,80.0,31.0,-100.00,SSW,197,5.0,20.0,17,0.00,,,0.00,765.000000,,2013-06-28 21:11:00,
2013-06-28 15:23:00,80.0,31.0,-100.00,SSW,197,5.0,20.0,17,0.00,,,0.00,765.000000,,2013-06-28 21:23:00,
2013-06-28 15:34:00,83.0,31.0,-100.00,North,3,6.0,18.0,15,0.00,,,0.00,655.000000,,2013-06-28 21:34:00,
2013-06-28 15:53:00,83.0,31.0,-100.00,North,3,6.0,18.0,15,0.00,,,0.00,655.000000,,2013-06-28 21:53:00,
2013-06-28 16:01:00,83.0,31.0,-100.00,North,3,6.0,18.0,15,0.00,,,0.00,655.000000,,2013-06-28 22:01:00,
2013-06-28 16:11:00,83.0,31.0,-100.00,North,3,6.0,18.0,15,0.00,,,0.00,655.000000,,2013-06-28 22:11:00,
2013-06-28 16:22:00,83.0,31.0,-100.00,North,3,6.0,18.0,15,0.00,,,0.00,655.000000,,2013-06-28 22:22:00,
2013-06-28 16:34:00,76.0,33.0,-100.00,SSE,164,7.0,21.0,21,0.00,,,0.00,402.000000,,2013-06-28 22:34:00,
2013-06-28 17:01:00,76.0,33.0,-100.00,SSE,164,7.0,21.0,21,0.00,,,0.00,402.000000,,2013-06-28 23:01:00,
2013-06-28 17:11:00,76.0,33.0,-100.00,SSE,164,7.0,21.0,21,0.00,,,0.00,402.000000,,2013-06-28 23:11:00,
2013-06-28 17:23:00,76.0,33.0,-100.00,SSE,164,7.0,21.0,21,0.00,,,0.00,402.000000,,2013-06-28 23:23:00,
2013-06-28 17:53:00,71.0,36.0,-100.00,SE,127,9.0,27.0,28,0.00,,,0.00,348.000000,,2013-06-28 23:53:00,
2013-06-28 18:02:00,71.0,36.0,-100.00,SE,127,9.0,27.0,28,0.00,,,0.00,348.000000,,2013-06-29 00:02:00,
2013-06-28 18:11:00,71.0,36.0,-100.00,SE,127,9.0,27.0,28,0.00,,,0.00,348.000000,,2013-06-29 00:11:00,
2013-06-28 18:22:00,71.0,36.0,-100.00,SE,127,9.0,27.0,28,0.00,,,0.00,348.000000,,2013-06-29 00:22:00,
2013-06-28 18:33:00,71.0,36.0,-100.00,SE,127,9.0,27.0,28,0.00,,,0.00,348.000000,,2013-06-29 00:33:00,
2013-06-28 18:52:00,69.0,36.0,-100.00,East,83,5.0,16.0,30,0.00,,,0.00,151.000000,,2013-06-29 00:52:00,
2013-06-28 19:01:00,69.0,36.0,-100.00,East,83,5.0,16.0,30,0.00,,,0.00,151.000000,,2013-06-29 01:01:00,
2013-06-28 19:11:00,69.0,36.0,-100.00,East,83,5.0,16.0,30,0.00,,,0.00,151.000000,,2013-06-29 01:11:00,
2013-06-28 19:22:00,69.0,36.0,-100.00,East,83,5.0,16.0,30,0.00,,,0.00,151.000000,,2013-06-29 01:22:00,
2013-06-28 19:31:00,69.0,36.0,-100.00,East,83,5.0,16.0,30,0.00,,,0.00,151.000000,,2013-06-29 01:31:00,
2013-06-28 19:52:00,67.0,36.0,-100.00,ENE,64,6.0,21.0,32,0.00,,,0.00,49.000000,,2013-06-29 01:52:00,
2013-06-28 20:01:00,67.0,36.0,-100.00,ENE,64,6.0,21.0,32,0.00,,,0.00,49.000000,,2013-06-29 02:01:00,
2013-06-28 20:11:00,67.0,36.0,-100.00,ENE,64,6.0,21.0,32,0.00,,,0.00,49.000000,,2013-06-29 02:11:00,
2013-06-28 20:21:00,67.0,36.0,-100.00,ENE,64,6.0,21.0,32,0.00,,,0.00,49.000000,,2013-06-29 02:21:00,
2013-06-28 20:31:00,67.0,36.0,-100.00,ENE,64,6.0,21.0,32,0.00,,,0.00,49.000000,,2013-06-29 02:31:00,
2013-06-28 20:51:00,63.0,39.0,-100.00,SSE,160,8.0,14.0,41,0.00,,,0.00,18.000000,,2013-06-29 02:51:00,
2013-06-28 21:01:00,63.0,39.0,-100.00,SSE,160,8.0,14.0,41,0.00,,,0.00,18.000000,,2013-06-29 03:01:00,
2013-06-28 21:11:00,63.0,39.0,-100.00,SSE,160,8.0,14.0,41,0.00,,,0.00,18.000000,,2013-06-29 03:11:00,
2013-06-28 21:21:00,63.0,39.0,-100.00,SSE,160,8.0,14.0,41,0.00,,,0.00,18.000000,,2013-06-29 03:21:00,
2013-06-28 21:32:00,63.0,39.0,-100.00,SSE,160,8.0,14.0,41,0.00,,,0.00,18.000000,,2013-06-29 03:32:00,
2013-06-28 21:51:00,60.0,42.0,-100.00,South,170,9.0,17.0,51,0.00,,,0.00,0.000000,,2013-06-29 03:51:00,
2013-06-28 22:01:00,60.0,42.0,-100.00,South,170,9.0,17.0,51,0.00,,,0.00,0.000000,,2013-06-29 04:01:00,
2013-06-28 22:11:00,60.0,42.0,-100.00,South,170,9.0,17.0,51,0.00,,,0.00,0.000000,,2013-06-29 04:11:00,
2013-06-28 22:23:00,60.0,42.0,-100.00,South,170,9.0,17.0,51,0.00,,,0.00,0.000000,,2013-06-29 04:23:00,
2013-06-28 22:31:00,60.0,42.0,-100.00,South,170,9.0,17.0,51,0.00,,,0.00,0.000000,,2013-06-29 04:31:00,
2013-06-28 22:51:00,60.0,40.0,-100.00,SE,133,4.0,26.0,47,0.00,,,0.00,0.000000,,2013-06-29 04:51:00,
2013-06-28 23:01:00,60.0,40.0,-100.00,SE,133,4.0,26.0,47,0.00,,,0.00,0.000000,,2013-06-29 05:01:00,
2013-06-28 23:10:00,60.0,40.0,-100.00,SE,133,4.0,26.0,47,0.00,,,0.00,0.000000,,2013-06-29 05:10:00,
2013-06-28 23:21:00,60.0,40.0,-100.00,SE,133,4.0,26.0,47,0.00,,,0.00,0.000000,,2013-06-29 05:21:00,
2013-06-28 23:31:00,60.0,40.0,-100.00,SE,133,4.0,26.0,47,0.00,,,0.00,0.000000,,2013-06-29 05:31:00,
2013-06-28 23:52:00,59.0,38.0,-100.00,SE,131,4.0,10.0,46,0.00,,,0.00,0.000000,,2013-06-29 05:52:00,